createdAt,value
2019-05-18T00:00:30.140Z,4.90
2019-05-18T00:05:33.483Z,4.65
2019-05-18T00:10:36.813Z,5.78
2019-05-18T00:15:40.125Z,5.15
2019-05-18T00:20:43.540Z,4.40
2019-05-18T00:25:46.874Z,4.50
2019-05-18T00:30:50.182Z,5.12
2019-05-18T00:35:53.483Z,4.47
2019-05-18T00:40:56.771Z,4.45
2019-05-18T00:46:00.086Z,4.22
2019-05-18T00:51:03.414Z,4.62
2019-05-18T00:56:06.746Z,3.65
2019-05-18T01:01:10.130Z,3.92
2019-05-18T01:06:13.436Z,4.17
2019-05-18T01:11:16.731Z,4.37
2019-05-18T01:16:20.056Z,4.70
2019-05-18T01:21:23.411Z,4.28
2019-05-18T01:26:26.746Z,4.53
2019-05-18T01:31:30.086Z,3.83
2019-05-18T01:36:33.427Z,3.92
2019-05-18T01:41:36.735Z,4.28
2019-05-18T01:46:40.037Z,3.65
2019-05-18T01:51:43.344Z,3.55
2019-05-18T01:56:46.705Z,3.35
2019-05-18T02:01:50.035Z,3.72
2019-05-18T02:06:53.622Z,4.03
2019-05-18T02:11:56.958Z,3.60
2019-05-18T02:17:00.290Z,3.75
2019-05-18T02:22:03.639Z,3.80
2019-05-18T02:27:06.960Z,3.92
2019-05-18T02:32:10.669Z,3.40
2019-05-18T02:37:14.009Z,3.55
2019-05-18T02:42:17.346Z,4.00
2019-05-18T02:47:20.677Z,3.67
2019-05-18T02:52:24.006Z,3.62
2019-05-18T02:57:27.322Z,3.77
2019-05-18T03:02:30.643Z,3.20
2019-05-18T03:07:33.990Z,3.20
2019-05-18T03:12:37.327Z,3.83
2019-05-18T03:17:40.666Z,3.30
2019-05-18T03:22:43.989Z,3.27
2019-05-18T03:27:47.315Z,3.20
2019-05-18T03:32:50.647Z,3.50
2019-05-18T03:37:54.160Z,3.35
2019-05-18T03:42:57.521Z,3.42
2019-05-18T03:48:00.859Z,3.35
2019-05-18T03:53:04.171Z,3.20
2019-05-18T03:58:07.464Z,3.60
2019-05-18T04:03:10.779Z,3.08
2019-05-18T04:08:14.069Z,3.08
2019-05-18T04:13:17.385Z,2.98
2019-05-18T04:18:20.737Z,3.05
2019-05-18T04:23:24.074Z,2.72
2019-05-18T04:28:27.391Z,3.35
2019-05-18T04:33:30.722Z,2.67
2019-05-18T04:38:34.035Z,2.90
2019-05-18T04:43:37.345Z,2.75
2019-05-18T04:48:40.665Z,3.02
2019-05-18T04:53:43.998Z,3.12
2019-05-18T04:58:47.317Z,2.83
2019-05-18T05:03:50.642Z,3.33
2019-05-18T05:08:53.995Z,3.12
2019-05-18T05:13:57.352Z,3.02
2019-05-18T05:19:00.654Z,2.90
2019-05-18T05:24:03.971Z,3.05
2019-05-18T05:29:07.294Z,2.85
2019-05-18T05:34:10.599Z,3.30
2019-05-18T05:39:14.073Z,3.65
2019-05-18T05:44:18.793Z,3.60
2019-05-18T05:49:22.105Z,3.55
2019-05-18T05:54:25.425Z,4.90
2019-05-18T05:59:28.756Z,8.25
2019-05-18T06:04:33.149Z,11.70
2019-05-18T06:09:36.492Z,12.23
2019-05-18T06:14:39.795Z,11.15
2019-05-18T06:19:43.215Z,10.10
2019-05-18T06:47:13.957Z,9.90
2019-05-18T06:52:17.516Z,8.75
2019-05-18T06:57:21.002Z,8.45
2019-05-18T07:02:24.512Z,6.90
2019-05-18T07:07:28.992Z,7.53
2019-05-18T07:12:32.396Z,7.15
2019-05-18T07:17:35.849Z,8.33
2019-05-18T07:22:39.396Z,7.28
2019-05-18T07:27:42.932Z,7.80
2019-05-18T07:32:46.650Z,7.35
2019-05-18T07:37:50.169Z,7.83
2019-05-18T07:42:53.647Z,7.97
2019-05-18T07:47:57.195Z,7.62
2019-05-18T07:53:00.710Z,8.18
2019-05-18T07:58:04.428Z,7.80
2019-05-18T08:03:09.760Z,8.60
2019-05-18T08:08:13.155Z,8.30
2019-05-18T08:13:16.650Z,7.80
2019-05-18T08:18:20.225Z,7.65
2019-05-18T08:23:23.661Z,8.18
2019-05-18T08:28:28.963Z,7.65
2019-05-18T08:33:32.506Z,7.85
2019-05-18T08:38:35.979Z,7.67
2019-05-18T08:43:39.506Z,8.88
2019-05-18T08:48:43.017Z,7.83
2019-05-18T08:53:46.449Z,7.22
2019-05-18T08:58:49.975Z,7.05
2019-05-18T09:03:53.376Z,7.80
2019-05-18T09:08:56.900Z,8.55
2019-05-18T09:14:00.416Z,7.60
2019-05-18T09:19:03.994Z,7.62
2019-05-18T09:24:09.278Z,7.03
2019-05-18T09:29:12.696Z,8.03
2019-05-18T09:34:16.150Z,8.20
2019-05-18T09:39:21.117Z,7.75
2019-05-18T09:44:24.999Z,7.80
2019-05-18T09:49:28.543Z,7.33
2019-05-18T09:54:32.043Z,9.03
2019-05-18T09:59:35.754Z,7.85
2019-05-18T10:04:39.466Z,8.15
2019-05-18T10:09:43.121Z,8.30
2019-05-18T10:14:46.552Z,8.70
2019-05-18T10:19:50.010Z,8.78
2019-05-18T10:24:53.447Z,7.83
2019-05-18T10:29:56.933Z,8.95
2019-05-18T10:35:00.860Z,8.50
2019-05-18T10:40:08.772Z,7.70
2019-05-18T10:45:13.498Z,7.65
2019-05-18T10:50:17.026Z,7.60
2019-05-18T10:55:20.540Z,8.00
2019-05-18T11:00:24.162Z,7.28
2019-05-18T11:05:29.749Z,7.80
2019-05-18T11:10:33.058Z,8.18
2019-05-18T11:15:36.648Z,7.12
2019-05-18T11:20:41.201Z,8.13
2019-05-18T11:25:44.703Z,8.53
2019-05-18T11:30:48.159Z,7.95
2019-05-18T11:35:51.754Z,7.53
2019-05-18T11:40:55.656Z,7.22
2019-05-18T11:45:59.263Z,7.92
2019-05-18T11:51:02.912Z,7.33
2019-05-18T11:56:07.042Z,7.03
2019-05-18T12:01:10.972Z,7.10
2019-05-18T12:06:14.792Z,7.28
2019-05-18T12:11:18.741Z,7.20
2019-05-18T12:16:22.528Z,6.67
2019-05-18T12:21:26.425Z,6.50
2019-05-18T12:26:30.049Z,6.15
2019-05-18T12:31:34.570Z,6.17
2019-05-18T12:36:38.611Z,6.50
2019-05-18T12:41:42.312Z,6.90
2019-05-18T12:46:45.894Z,8.03
2019-05-18T12:51:49.268Z,7.83
2019-05-18T12:56:52.793Z,6.60
2019-05-18T13:01:56.277Z,6.83
2019-05-18T13:06:59.727Z,7.30
2019-05-18T13:12:03.224Z,6.92
2019-05-18T13:17:06.718Z,6.62
2019-05-18T13:22:10.151Z,7.60
2019-05-18T13:27:13.647Z,7.47
2019-05-18T13:32:17.082Z,6.62
2019-05-18T13:37:20.539Z,6.78
2019-05-18T13:42:24.089Z,6.67
2019-05-18T13:47:27.592Z,7.67
2019-05-18T13:52:32.896Z,6.10
2019-05-18T13:57:36.365Z,6.42
2019-05-18T14:02:39.875Z,6.58
2019-05-18T14:07:43.424Z,6.78
2019-05-18T14:12:46.835Z,7.20
2019-05-18T14:17:50.318Z,7.33
2019-05-18T14:22:53.756Z,7.00
2019-05-18T14:27:57.177Z,6.40
2019-05-18T14:33:00.694Z,7.15
2019-05-18T14:38:04.121Z,8.50
2019-05-18T14:43:09.563Z,8.10
2019-05-18T14:48:13.147Z,7.55
2019-05-18T14:53:16.608Z,8.20
2019-05-18T14:58:22.341Z,7.12
2019-05-18T15:03:26.747Z,6.37
2019-05-18T15:08:30.134Z,7.00
2019-05-18T15:13:34.834Z,6.87
2019-05-18T15:18:38.327Z,6.22
2019-05-18T15:23:41.768Z,6.58
2019-05-18T15:28:45.249Z,6.65
2019-05-18T15:33:48.685Z,6.87
2019-05-18T15:38:52.169Z,18.92
2019-05-18T15:43:55.695Z,15.93
2019-05-18T15:48:59.234Z,21.48
2019-05-18T15:54:02.749Z,30.40
2019-05-18T15:59:06.233Z,41.37
2019-05-18T16:04:09.695Z,40.63
2019-05-18T16:09:13.261Z,47.67
2019-05-18T16:14:16.721Z,38.67
2019-05-18T16:19:21.282Z,28.85
2019-05-18T16:24:24.854Z,24.57
2019-05-18T16:29:28.468Z,22.37
2019-05-18T16:34:31.933Z,19.75
2019-05-18T16:39:35.414Z,20.23
2019-05-18T16:44:38.862Z,17.90
2019-05-18T16:49:42.349Z,15.15
2019-05-18T16:54:45.936Z,15.10
2019-05-18T16:59:49.439Z,14.85
2019-05-18T17:04:52.970Z,13.48
2019-05-18T17:09:56.457Z,13.65
2019-05-18T17:15:01.033Z,12.90
2019-05-18T17:20:04.813Z,12.25
2019-05-18T17:25:08.781Z,12.03
2019-05-18T17:30:12.295Z,11.73
2019-05-18T17:35:15.895Z,11.33
2019-05-18T17:40:19.513Z,12.00
2019-05-18T17:45:23.364Z,11.43
2019-05-18T17:50:27.025Z,11.40
2019-05-18T17:55:30.665Z,9.50
2019-05-18T18:00:34.488Z,9.90
2019-05-18T18:05:45.173Z,10.70
2019-05-18T18:10:48.626Z,9.65
2019-05-18T18:15:52.199Z,9.75
2019-05-18T18:20:55.716Z,11.30
2019-05-18T18:25:59.201Z,10.40
2019-05-18T18:31:02.719Z,10.28
2019-05-18T18:36:06.224Z,9.98
2019-05-18T18:41:09.655Z,9.68
2019-05-18T18:46:13.153Z,9.75
2019-05-18T18:51:16.578Z,9.58
2019-05-18T18:56:20.188Z,9.90
2019-05-18T19:01:23.696Z,9.43
2019-05-18T19:06:27.127Z,9.05
2019-05-18T19:11:30.648Z,10.13
2019-05-18T19:16:34.127Z,9.73
2019-05-18T19:21:37.651Z,8.65
2019-05-18T19:26:41.306Z,9.68
2019-05-18T19:31:44.770Z,9.40
2019-05-18T19:36:49.299Z,9.95
2019-05-18T19:41:52.754Z,8.58
2019-05-18T19:46:56.237Z,8.95
2019-05-18T19:51:59.913Z,8.50
2019-05-18T19:57:03.651Z,9.25
2019-05-18T20:02:07.181Z,8.83
2019-05-18T20:07:10.709Z,8.35
2019-05-18T20:12:14.131Z,8.45
2019-05-18T20:17:17.634Z,7.95
2019-05-18T20:22:21.175Z,7.90
2019-05-18T20:27:24.687Z,8.05
2019-05-18T20:32:28.174Z,7.95
2019-05-18T20:37:31.720Z,7.47
2019-05-18T20:42:37.525Z,7.85
2019-05-18T20:47:40.706Z,8.45
2019-05-18T20:52:44.164Z,7.83
2019-05-18T20:57:47.694Z,7.80
2019-05-18T21:02:51.271Z,8.45
2019-05-18T21:07:54.815Z,8.15
2019-05-18T21:12:58.332Z,7.35
2019-05-18T21:18:01.853Z,8.85
2019-05-18T21:23:06.372Z,7.00
2019-05-18T21:28:09.901Z,7.58
2019-05-18T21:33:13.342Z,8.18
2019-05-18T21:38:17.059Z,7.90
2019-05-18T21:43:20.741Z,8.00
2019-05-18T21:48:24.168Z,7.40
2019-05-18T21:53:27.667Z,8.60
2019-05-18T21:58:31.090Z,6.97
2019-05-18T22:03:34.603Z,8.58
2019-05-18T22:08:38.057Z,7.80
2019-05-18T22:13:41.510Z,7.03
2019-05-18T22:18:45.163Z,8.53
2019-05-18T22:23:48.754Z,8.03
2019-05-18T22:28:52.260Z,7.60
2019-05-18T22:33:55.732Z,7.65
2019-05-18T22:38:59.297Z,7.62
2019-05-18T22:44:02.907Z,7.67
2019-05-18T22:49:06.425Z,8.00
2019-05-18T22:54:09.883Z,8.38
2019-05-18T22:59:15.177Z,7.40
2019-05-18T23:04:18.941Z,8.05
2019-05-18T23:09:22.451Z,7.67
2019-05-18T23:14:25.968Z,7.40
2019-05-18T23:19:29.411Z,6.65
2019-05-18T23:24:33.068Z,7.53
2019-05-18T23:29:36.586Z,7.22
2019-05-18T23:34:40.051Z,7.92
2019-05-18T23:39:43.539Z,6.80
2019-05-18T23:44:47.000Z,7.33
2019-05-18T23:49:50.531Z,6.78
2019-05-18T23:54:53.983Z,7.25
2019-05-18T23:59:57.398Z,6.78
